sensor_id;sensor_type;location;lat;lon;timestamp;pressure;altitude;pressure_sealevel;temperature;humidity
23164;BME280;31429;42.674;23.350;2023-05-08T00:00:19;94953.34;;;14.00;100.00
23164;BME280;31429;42.674;23.350;2023-05-08T00:01:20;94950.63;;;14.03;100.00
23164;BME280;31429;42.674;23.350;2023-05-08T00:02:21;94954.47;;;13.95;100.00
23164;BME280;31429;42.674;23.350;2023-05-08T00:03:21;94962.41;;;13.90;100.00
23164;BME280;31429;42.674;23.350;2023-05-08T00:04:23;94956.44;;;13.90;100.00
23164;BME280;31429;42.674;23.350;2023-05-08T00:05:24;94957.78;;;13.97;100.00
23164;BME280;31429;42.674;23.350;2023-05-08T00:06:24;94964.63;;;13.98;100.00
23164;BME280;31429;42.674;23.350;2023-05-08T00:07:28;94958.06;;;14.09;100.00
23164;BME280;31429;42.674;23.350;2023-05-08T00:08:28;94956.47;;;14.07;100.00
23164;BME280;31429;42.674;23.350;2023-05-08T00:09:29;94959.03;;;14.07;100.00
23164;BME280;31429;42.674;23.350;2023-05-08T00:10:30;94957.81;;;14.14;100.00
23164;BME280;31429;42.674;23.350;2023-05-08T00:11:30;94948.22;;;14.17;100.00
23164;BME280;31429;42.674;23.350;2023-05-08T00:12:31;94954.13;;;14.19;100.00
23164;BME280;31429;42.674;23.350;2023-05-08T00:13:32;94957.63;;;14.18;100.00
23164;BME280;31429;42.674;23.350;2023-05-08T00:14:33;94954.91;;;14.21;100.00
23164;BME280;31429;42.674;23.350;2023-05-08T00:15:34;94951.34;;;14.24;100.00
23164;BME280;31429;42.674;23.350;2023-05-08T00:16:35;94959.97;;;14.23;100.00
23164;BME280;31429;42.674;23.350;2023-05-08T00:17:36;94962.75;;;14.18;100.00
23164;BME280;31429;42.674;23.350;2023-05-08T00:18:37;94958.28;;;14.22;100.00
23164;BME280;31429;42.674;23.350;2023-05-08T00:19:38;94956.25;;;14.28;100.00
23164;BME280;31429;42.674;23.350;2023-05-08T00:20:38;94964.41;;;14.19;100.00
23164;BME280;31429;42.674;23.350;2023-05-08T00:21:39;94957.63;;;14.18;100.00
23164;BME280;31429;42.674;23.350;2023-05-08T00:22:41;94960.84;;;14.22;100.00
23164;BME280;31429;42.674;23.350;2023-05-08T00:23:42;94958.66;;;14.14;100.00
23164;BME280;31429;42.674;23.350;2023-05-08T00:24:42;94959.34;;;14.18;100.00
23164;BME280;31429;42.674;23.350;2023-05-08T00:25:43;94956.03;;;14.16;100.00
23164;BME280;31429;42.674;23.350;2023-05-08T00:26:44;94964.69;;;14.13;100.00
23164;BME280;31429;42.674;23.350;2023-05-08T00:27:45;94960.47;;;14.12;100.00
23164;BME280;31429;42.674;23.350;2023-05-08T00:28:45;94956.03;;;14.16;100.00
23164;BME280;31429;42.674;23.350;2023-05-08T00:29:47;94964.34;;;14.21;100.00
23164;BME280;31429;42.674;23.350;2023-05-08T00:30:47;94970.47;;;14.18;100.00
23164;BME280;31429;42.674;23.350;2023-05-08T00:31:48;94967.28;;;14.13;100.00
23164;BME280;31429;42.674;23.350;2023-05-08T00:32:49;94969.03;;;14.13;100.00
23164;BME280;31429;42.674;23.350;2023-05-08T00:33:49;94974.75;;;14.01;100.00
23164;BME280;31429;42.674;23.350;2023-05-08T00:34:50;94972.22;;;13.82;100.00
23164;BME280;31429;42.674;23.350;2023-05-08T00:35:57;94974.28;;;13.74;100.00
23164;BME280;31429;42.674;23.350;2023-05-08T00:36:58;94976.13;;;13.72;100.00
23164;BME280;31429;42.674;23.350;2023-05-08T00:38:00;94970.13;;;13.71;100.00
23164;BME280;31429;42.674;23.350;2023-05-08T00:39:00;94969.25;;;13.72;100.00
23164;BME280;31429;42.674;23.350;2023-05-08T00:40:01;94970.97;;;13.72;100.00
23164;BME280;31429;42.674;23.350;2023-05-08T00:41:02;94976.44;;;13.83;100.00
23164;BME280;31429;42.674;23.350;2023-05-08T00:42:02;94969.81;;;13.79;100.00
23164;BME280;31429;42.674;23.350;2023-05-08T00:43:03;94964.72;;;13.77;100.00
23164;BME280;31429;42.674;23.350;2023-05-08T00:44:04;94965.47;;;13.79;100.00
23164;BME280;31429;42.674;23.350;2023-05-08T00:45:05;94963.03;;;13.76;100.00
23164;BME280;31429;42.674;23.350;2023-05-08T00:46:06;94966.53;;;13.75;100.00
23164;BME280;31429;42.674;23.350;2023-05-08T00:47:09;94976.59;;;13.80;100.00
23164;BME280;31429;42.674;23.350;2023-05-08T00:48:09;94966.38;;;13.78;100.00
23164;BME280;31429;42.674;23.350;2023-05-08T00:49:10;94973.81;;;13.85;100.00
23164;BME280;31429;42.674;23.350;2023-05-08T00:50:13;94972.41;;;13.77;100.00
23164;BME280;31429;42.674;23.350;2023-05-08T00:51:15;94963.97;;;13.75;100.00
23164;BME280;31429;42.674;23.350;2023-05-08T00:52:16;94979.28;;;13.77;100.00
23164;BME280;31429;42.674;23.350;2023-05-08T00:53:21;94976.53;;;13.81;100.00
23164;BME280;31429;42.674;23.350;2023-05-08T00:54:22;94976.47;;;13.64;100.00
23164;BME280;31429;42.674;23.350;2023-05-08T00:55:23;94981.66;;;13.63;100.00
23164;BME280;31429;42.674;23.350;2023-05-08T00:56:24;94973.13;;;13.62;100.00
23164;BME280;31429;42.674;23.350;2023-05-08T00:57:27;94970.50;;;13.64;100.00
23164;BME280;31429;42.674;23.350;2023-05-08T00:58:30;94972.66;;;13.54;100.00
23164;BME280;31429;42.674;23.350;2023-05-08T00:59:32;94982.56;;;13.43;100.00
23164;BME280;31429;42.674;23.350;2023-05-08T01:00:34;94978.50;;;13.39;100.00
23164;BME280;31429;42.674;23.350;2023-05-08T01:01:36;94981.25;;;13.35;100.00
23164;BME280;31429;42.674;23.350;2023-05-08T01:02:37;94964.59;;;13.43;100.00
23164;BME280;31429;42.674;23.350;2023-05-08T01:03:39;94975.78;;;13.42;100.00
23164;BME280;31429;42.674;23.350;2023-05-08T01:04:40;94984.53;;;13.38;100.00
23164;BME280;31429;42.674;23.350;2023-05-08T01:05:43;94974.38;;;13.35;100.00
23164;BME280;31429;42.674;23.350;2023-05-08T01:06:45;94975.28;;;13.34;100.00
23164;BME280;31429;42.674;23.350;2023-05-08T01:07:45;94974.16;;;13.21;100.00
23164;BME280;31429;42.674;23.350;2023-05-08T01:08:47;94979.66;;;13.13;100.00
23164;BME280;31429;42.674;23.350;2023-05-08T01:09:48;94977.59;;;13.01;100.00
23164;BME280;31429;42.674;23.350;2023-05-08T01:10:57;94974.78;;;12.87;100.00
23164;BME280;31429;42.674;23.350;2023-05-08T01:12:07;94978.56;;;12.79;100.00
23164;BME280;31429;42.674;23.350;2023-05-08T01:13:27;94981.53;;;12.69;100.00
23164;BME280;31429;42.674;23.350;2023-05-08T01:14:38;94978.66;;;12.57;100.00
23164;BME280;31429;42.674;23.350;2023-05-08T01:15:45;94982.31;;;12.51;100.00
23164;BME280;31429;42.674;23.350;2023-05-08T01:16:54;94976.41;;;12.49;100.00
23164;BME280;31429;42.674;23.350;2023-05-08T01:18:03;94970.69;;;12.63;100.00
23164;BME280;31429;42.674;23.350;2023-05-08T01:19:31;94982.03;;;12.78;100.00
23164;BME280;31429;42.674;23.350;2023-05-08T01:20:45;94971.84;;;12.76;100.00
23164;BME280;31429;42.674;23.350;2023-05-08T01:21:52;94980.50;;;12.74;100.00
23164;BME280;31429;42.674;23.350;2023-05-08T01:23:26;94984.09;;;12.49;100.00
23164;BME280;31429;42.674;23.350;2023-05-08T01:28:43;94980.59;;;12.10;100.00
23164;BME280;31429;42.674;23.350;2023-05-08T01:30:19;94979.31;;;12.00;100.00
23164;BME280;31429;42.674;23.350;2023-05-08T01:31:36;94974.28;;;11.97;100.00
23164;BME280;31429;42.674;23.350;2023-05-08T01:32:45;94972.06;;;12.09;100.00
23164;BME280;31429;42.674;23.350;2023-05-08T01:33:54;94971.44;;;12.25;100.00
23164;BME280;31429;42.674;23.350;2023-05-08T01:35:01;94966.34;;;12.45;100.00
23164;BME280;31429;42.674;23.350;2023-05-08T01:36:13;94968.13;;;12.23;100.00
23164;BME280;31429;42.674;23.350;2023-05-08T01:37:23;94972.06;;;12.09;100.00
23164;BME280;31429;42.674;23.350;2023-05-08T01:38:32;94965.56;;;12.01;100.00
23164;BME280;31429;42.674;23.350;2023-05-08T01:39:44;94967.50;;;11.96;100.00
23164;BME280;31429;42.674;23.350;2023-05-08T01:40:51;94969.34;;;11.92;100.00
23164;BME280;31429;42.674;23.350;2023-05-08T01:41:57;94967.94;;;11.85;100.00
23164;BME280;31429;42.674;23.350;2023-05-08T01:43:11;94962.84;;;11.84;100.00
23164;BME280;31429;42.674;23.350;2023-05-08T01:44:16;94969.13;;;11.77;100.00
23164;BME280;31429;42.674;23.350;2023-05-08T01:45:21;94961.34;;;11.78;100.00
23164;BME280;31429;42.674;23.350;2023-05-08T01:46:25;94962.50;;;11.71;100.00
23164;BME280;31429;42.674;23.350;2023-05-08T01:47:29;94965.06;;;11.71;100.00
23164;BME280;31429;42.674;23.350;2023-05-08T01:48:34;94956.53;;;11.71;100.00
23164;BME280;31429;42.674;23.350;2023-05-08T01:49:41;94967.63;;;11.71;100.00
23164;BME280;31429;42.674;23.350;2023-05-08T01:50:46;94961.47;;;11.75;100.00
23164;BME280;31429;42.674;23.350;2023-05-08T01:51:54;94965.47;;;11.82;100.00
23164;BME280;31429;42.674;23.350;2023-05-08T01:52:57;94958.63;;;11.83;100.00
23164;BME280;31429;42.674;23.350;2023-05-08T01:54:03;94953.16;;;11.92;100.00
23164;BME280;31429;42.674;23.350;2023-05-08T01:55:08;94953.28;;;11.89;100.00
23164;BME280;31429;42.674;23.350;2023-05-08T01:56:18;94957.78;;;11.82;100.00
23164;BME280;31429;42.674;23.350;2023-05-08T01:57:23;94954.88;;;11.70;100.00
23164;BME280;31429;42.674;23.350;2023-05-08T01:58:26;94955.06;;;11.64;100.00
23164;BME280;31429;42.674;23.350;2023-05-08T01:59:29;94955.97;;;11.63;100.00
23164;BME280;31429;42.674;23.350;2023-05-08T02:00:32;94961.59;;;11.72;100.00
23164;BME280;31429;42.674;23.350;2023-05-08T02:01:33;94969.44;;;11.69;100.00
23164;BME280;31429;42.674;23.350;2023-05-08T02:02:34;94957.88;;;11.58;100.00
23164;BME280;31429;42.674;23.350;2023-05-08T02:03:38;94954.72;;;11.51;100.00
23164;BME280;31429;42.674;23.350;2023-05-08T02:04:41;94953.75;;;11.53;100.00
23164;BME280;31429;42.674;23.350;2023-05-08T02:05:43;94956.41;;;11.52;100.00
23164;BME280;31429;42.674;23.350;2023-05-08T02:06:44;94956.50;;;11.49;100.00
23164;BME280;31429;42.674;23.350;2023-05-08T02:07:46;94962.75;;;11.42;100.00
23164;BME280;31429;42.674;23.350;2023-05-08T02:08:49;94968.16;;;11.34;100.00
23164;BME280;31429;42.674;23.350;2023-05-08T02:09:51;94956.25;;;11.33;100.00
23164;BME280;31429;42.674;23.350;2023-05-08T02:10:55;94958.81;;;11.33;100.00
23164;BME280;31429;42.674;23.350;2023-05-08T02:11:58;94958.97;;;11.29;100.00
23164;BME280;31429;42.674;23.350;2023-05-08T02:13:00;94957.50;;;11.45;100.00
23164;BME280;31429;42.674;23.350;2023-05-08T02:14:02;94956.31;;;11.53;100.00
23164;BME280;31429;42.674;23.350;2023-05-08T02:15:05;94957.50;;;11.67;100.00
23164;BME280;31429;42.674;23.350;2023-05-08T02:16:10;94955.56;;;11.51;100.00
23164;BME280;31429;42.674;23.350;2023-05-08T02:17:14;94953.22;;;11.45;100.00
23164;BME280;31429;42.674;23.350;2023-05-08T02:18:17;94958.69;;;11.36;100.00
23164;BME280;31429;42.674;23.350;2023-05-08T02:19:22;94959.88;;;11.28;100.00
23164;BME280;31429;42.674;23.350;2023-05-08T02:20:25;94963.38;;;11.25;100.00
23164;BME280;31429;42.674;23.350;2023-05-08T02:21:27;94968.38;;;11.28;100.00
23164;BME280;31429;42.674;23.350;2023-05-08T02:22:31;94966.78;;;11.26;100.00
23164;BME280;31429;42.674;23.350;2023-05-08T02:23:32;94961.03;;;11.19;100.00
23164;BME280;31429;42.674;23.350;2023-05-08T02:24:34;94964.72;;;11.12;100.00
23164;BME280;31429;42.674;23.350;2023-05-08T02:25:36;94958.47;;;11.19;100.00
23164;BME280;31429;42.674;23.350;2023-05-08T02:26:38;94953.66;;;11.35;100.00
23164;BME280;31429;42.674;23.350;2023-05-08T02:27:42;94961.25;;;11.58;100.00
23164;BME280;31429;42.674;23.350;2023-05-08T02:28:45;94956.34;;;11.75;100.00
23164;BME280;31429;42.674;23.350;2023-05-08T02:29:46;94965.56;;;11.58;100.00
23164;BME280;31429;42.674;23.350;2023-05-08T02:30:48;94961.88;;;11.43;100.00
23164;BME280;31429;42.674;23.350;2023-05-08T02:31:51;94968.31;;;11.30;100.00
23164;BME280;31429;42.674;23.350;2023-05-08T02:32:53;94967.00;;;11.20;100.00
23164;BME280;31429;42.674;23.350;2023-05-08T02:33:56;94965.06;;;11.26;100.00
23164;BME280;31429;42.674;23.350;2023-05-08T02:34:59;94961.06;;;11.41;100.00
23164;BME280;31429;42.674;23.350;2023-05-08T02:36:01;94962.59;;;11.46;100.00
23164;BME280;31429;42.674;23.350;2023-05-08T02:37:02;94957.50;;;11.45;100.00
23164;BME280;31429;42.674;23.350;2023-05-08T02:38:04;94962.13;;;11.35;100.00
23164;BME280;31429;42.674;23.350;2023-05-08T02:39:10;94969.47;;;11.21;100.00
23164;BME280;31429;42.674;23.350;2023-05-08T02:40:13;94968.09;;;11.13;100.00
23164;BME280;31429;42.674;23.350;2023-05-08T02:41:18;94963.22;;;11.07;100.00
23164;BME280;31429;42.674;23.350;2023-05-08T02:42:19;94965.94;;;11.25;100.00
23164;BME280;31429;42.674;23.350;2023-05-08T02:43:20;94963.47;;;11.45;100.00
23164;BME280;31429;42.674;23.350;2023-05-08T02:44:22;94968.13;;;11.58;100.00
23164;BME280;31429;42.674;23.350;2023-05-08T02:45:25;94964.38;;;11.66;100.00
23164;BME280;31429;42.674;23.350;2023-05-08T02:46:35;94969.56;;;11.65;100.00
23164;BME280;31429;42.674;23.350;2023-05-08T02:47:46;94965.00;;;11.73;100.00
23164;BME280;31429;42.674;23.350;2023-05-08T02:48:56;94966.44;;;11.80;100.00
23164;BME280;31429;42.674;23.350;2023-05-08T02:50:03;94968.34;;;11.75;100.00
23164;BME280;31429;42.674;23.350;2023-05-08T02:51:17;94974.06;;;11.58;100.00
23164;BME280;31429;42.674;23.350;2023-05-08T02:52:24;94967.94;;;11.40;100.00
23164;BME280;31429;42.674;23.350;2023-05-08T02:53:32;94974.66;;;11.20;100.00
23164;BME280;31429;42.674;23.350;2023-05-08T02:54:37;94969.03;;;11.10;100.00
23164;BME280;31429;42.674;23.350;2023-05-08T02:55:43;94973.31;;;11.33;100.00
23164;BME280;31429;42.674;23.350;2023-05-08T02:56:55;94973.59;;;11.48;100.00
23164;BME280;31429;42.674;23.350;2023-05-08T02:58:07;94977.47;;;11.59;100.00
23164;BME280;31429;42.674;23.350;2023-05-08T02:59:17;94967.56;;;11.73;100.00
23164;BME280;31429;42.674;23.350;2023-05-08T03:00:21;94980.22;;;11.54;100.00
23164;BME280;31429;42.674;23.350;2023-05-08T03:01:25;94976.72;;;11.33;100.00
23164;BME280;31429;42.674;23.350;2023-05-08T03:02:32;94976.41;;;11.19;100.00
23164;BME280;31429;42.674;23.350;2023-05-08T03:03:37;94970.72;;;11.11;100.00
23164;BME280;31429;42.674;23.350;2023-05-08T03:04:45;94978.72;;;11.02;100.00
23164;BME280;31429;42.674;23.350;2023-05-08T03:05:53;94976.25;;;11.01;100.00
23164;BME280;31429;42.674;23.350;2023-05-08T03:06:56;94971.13;;;11.01;100.00
23164;BME280;31429;42.674;23.350;2023-05-08T03:08:01;94973.94;;;11.16;100.00
23164;BME280;31429;42.674;23.350;2023-05-08T03:09:04;94975.63;;;11.40;100.00
23164;BME280;31429;42.674;23.350;2023-05-08T03:10:10;94967.22;;;11.59;100.00
23164;BME280;31429;42.674;23.350;2023-05-08T03:11:15;94974.44;;;11.49;100.00
23164;BME280;31429;42.674;23.350;2023-05-08T03:12:20;94972.63;;;11.29;100.00
23164;BME280;31429;42.674;23.350;2023-05-08T03:13:23;94972.41;;;11.12;100.00
23164;BME280;31429;42.674;23.350;2023-05-08T03:14:26;94971.78;;;11.06;100.00
23164;BME280;31429;42.674;23.350;2023-05-08T03:15:32;94972.78;;;11.25;100.00
23164;BME280;31429;42.674;23.350;2023-05-08T03:16:35;94978.22;;;11.39;100.00
23164;BME280;31429;42.674;23.350;2023-05-08T03:17:38;94966.38;;;11.58;100.00
23164;BME280;31429;42.674;23.350;2023-05-08T03:18:46;94978.94;;;11.64;100.00
23164;BME280;31429;42.674;23.350;2023-05-08T03:19:51;94980.88;;;11.59;100.00
23164;BME280;31429;42.674;23.350;2023-05-08T03:20:58;94975.81;;;11.58;100.00
23164;BME280;31429;42.674;23.350;2023-05-08T03:22:00;94983.06;;;11.46;100.00
23164;BME280;31429;42.674;23.350;2023-05-08T03:23:02;94986.63;;;11.42;100.00
23164;BME280;31429;42.674;23.350;2023-05-08T03:24:04;94989.72;;;11.50;100.00
23164;BME280;31429;42.674;23.350;2023-05-08T03:25:07;94979.19;;;11.58;100.00
23164;BME280;31429;42.674;23.350;2023-05-08T03:26:10;94980.75;;;11.62;100.00
23164;BME280;31429;42.674;23.350;2023-05-08T03:27:13;94982.16;;;11.71;100.00
23164;BME280;31429;42.674;23.350;2023-05-08T03:28:16;94984.59;;;11.74;100.00
23164;BME280;31429;42.674;23.350;2023-05-08T03:29:17;94980.03;;;11.59;100.00
23164;BME280;31429;42.674;23.350;2023-05-08T03:30:19;94987.28;;;11.47;100.00
23164;BME280;31429;42.674;23.350;2023-05-08T03:31:21;94977.44;;;11.37;100.00
23164;BME280;31429;42.674;23.350;2023-05-08T03:32:23;94991.19;;;11.34;100.00
23164;BME280;31429;42.674;23.350;2023-05-08T03:33:25;94989.09;;;11.44;100.00
23164;BME280;31429;42.674;23.350;2023-05-08T03:34:28;94992.50;;;11.44;100.00
23164;BME280;31429;42.674;23.350;2023-05-08T03:35:30;94987.63;;;11.38;100.00
23164;BME280;31429;42.674;23.350;2023-05-08T03:36:32;94984.41;;;11.33;100.00
23164;BME280;31429;42.674;23.350;2023-05-08T03:37:33;94987.28;;;11.47;100.00
23164;BME280;31429;42.674;23.350;2023-05-08T03:38:34;94990.72;;;11.70;100.00
23164;BME280;31429;42.674;23.350;2023-05-08T03:39:35;94982.69;;;11.79;100.00
23164;BME280;31429;42.674;23.350;2023-05-08T03:40:36;94978.44;;;11.78;100.00
23164;BME280;31429;42.674;23.350;2023-05-08T03:41:42;94988.16;;;11.70;100.00
23164;BME280;31429;42.674;23.350;2023-05-08T03:42:43;94988.53;;;11.59;100.00
23164;BME280;31429;42.674;23.350;2023-05-08T03:43:44;94982.81;;;11.52;100.00
23164;BME280;31429;42.674;23.350;2023-05-08T03:44:46;94981.84;;;11.55;100.00
23164;BME280;31429;42.674;23.350;2023-05-08T03:45:47;94980.75;;;11.62;100.00
23164;BME280;31429;42.674;23.350;2023-05-08T03:46:49;94979.47;;;11.74;100.00
23164;BME280;31429;42.674;23.350;2023-05-08T03:47:52;94977.09;;;11.91;100.00
23164;BME280;31429;42.674;23.350;2023-05-08T03:48:53;94978.38;;;12.01;100.00
23164;BME280;31429;42.674;23.350;2023-05-08T03:49:55;94983.28;;;12.07;100.00
23164;BME280;31429;42.674;23.350;2023-05-08T03:50:56;94981.34;;;12.12;100.00
23164;BME280;31429;42.674;23.350;2023-05-08T03:51:59;94980.59;;;12.10;100.00
23164;BME280;31429;42.674;23.350;2023-05-08T03:53:01;94982.31;;;12.09;100.00
23164;BME280;31429;42.674;23.350;2023-05-08T03:54:02;94991.59;;;11.92;100.00
23164;BME280;31429;42.674;23.350;2023-05-08T03:55:03;94983.75;;;11.73;100.00
23164;BME280;31429;42.674;23.350;2023-05-08T03:56:04;94991.00;;;11.62;100.00
23164;BME280;31429;42.674;23.350;2023-05-08T03:57:04;94995.50;;;11.55;100.00
23164;BME280;31429;42.674;23.350;2023-05-08T03:58:12;94992.06;;;11.57;100.00
23164;BME280;31429;42.674;23.350;2023-05-08T03:59:15;94992.56;;;11.66;100.00
23164;BME280;31429;42.674;23.350;2023-05-08T04:00:25;94989.81;;;11.92;100.00
23164;BME280;31429;42.674;23.350;2023-05-08T04:01:35;94996.03;;;12.08;100.00
23164;BME280;31429;42.674;23.350;2023-05-08T04:02:44;94998.25;;;11.96;100.00
23164;BME280;31429;42.674;23.350;2023-05-08T04:03:53;95000.38;;;11.85;100.00
23164;BME280;31429;42.674;23.350;2023-05-08T04:05:01;94999.53;;;11.84;100.00
23164;BME280;31429;42.674;23.350;2023-05-08T04:06:09;94995.06;;;11.89;100.00
23164;BME280;31429;42.674;23.350;2023-05-08T04:07:14;94998.66;;;11.85;100.00
23164;BME280;31429;42.674;23.350;2023-05-08T04:08:21;94999.63;;;11.83;100.00
23164;BME280;31429;42.674;23.350;2023-05-08T04:09:36;95005.59;;;11.83;100.00
23164;BME280;31429;42.674;23.350;2023-05-08T04:10:41;95001.88;;;11.90;100.00
23164;BME280;31429;42.674;23.350;2023-05-08T04:11:51;95003.16;;;12.00;100.00
23164;BME280;31429;42.674;23.350;2023-05-08T04:13:02;95001.31;;;12.04;100.00
23164;BME280;31429;42.674;23.350;2023-05-08T04:14:07;95000.66;;;12.21;100.00
23164;BME280;31429;42.674;23.350;2023-05-08T04:15:13;94995.50;;;12.42;100.00
23164;BME280;31429;42.674;23.350;2023-05-08T04:16:20;95001.19;;;12.49;100.00
23164;BME280;31429;42.674;23.350;2023-05-08T04:17:28;95002.75;;;12.53;100.00
23164;BME280;31429;42.674;23.350;2023-05-08T04:18:36;95005.19;;;12.56;100.00
23164;BME280;31429;42.674;23.350;2023-05-08T04:19:45;95005.50;;;12.68;100.00
23164;BME280;31429;42.674;23.350;2023-05-08T04:20:47;95006.34;;;12.69;100.00
23164;BME280;31429;42.674;23.350;2023-05-08T04:21:49;95014.75;;;12.73;100.00
23164;BME280;31429;42.674;23.350;2023-05-08T04:22:53;95011.34;;;12.72;100.00
23164;BME280;31429;42.674;23.350;2023-05-08T04:23:56;95011.34;;;12.72;100.00
23164;BME280;31429;42.674;23.350;2023-05-08T04:25:01;95008.28;;;12.84;100.00
23164;BME280;31429;42.674;23.350;2023-05-08T04:26:02;95007.44;;;12.84;100.00
23164;BME280;31429;42.674;23.350;2023-05-08T04:27:04;95005.63;;;12.86;100.00
23164;BME280;31429;42.674;23.350;2023-05-08T04:28:06;95006.47;;;12.86;100.00
23164;BME280;31429;42.674;23.350;2023-05-08T04:29:07;95010.97;;;12.81;100.00
23164;BME280;31429;42.674;23.350;2023-05-08T04:30:09;95009.03;;;12.86;100.00
23164;BME280;31429;42.674;23.350;2023-05-08T04:31:10;95010.84;;;12.84;100.00
23164;BME280;31429;42.674;23.350;2023-05-08T04:32:11;95011.09;;;12.78;100.00
23164;BME280;31429;42.674;23.350;2023-05-08T04:33:13;95011.41;;;12.71;100.00
23164;BME280;31429;42.674;23.350;2023-05-08T04:34:14;95011.53;;;12.67;100.00
23164;BME280;31429;42.674;23.350;2023-05-08T04:35:15;95013.59;;;12.59;100.00
23164;BME280;31429;42.674;23.350;2023-05-08T04:36:16;95011.09;;;12.58;100.00
23164;BME280;31429;42.674;23.350;2023-05-08T04:37:23;95009.75;;;12.69;100.00
23164;BME280;31429;42.674;23.350;2023-05-08T04:38:26;95010.38;;;12.95;100.00
23164;BME280;31429;42.674;23.350;2023-05-08T04:39:26;95008.16;;;13.06;100.00
23164;BME280;31429;42.674;23.350;2023-05-08T04:40:27;95003.16;;;13.03;100.00
23164;BME280;31429;42.674;23.350;2023-05-08T04:41:28;95008.06;;;13.09;100.00
23164;BME280;31429;42.674;23.350;2023-05-08T04:42:29;95008.03;;;13.10;100.00
23164;BME280;31429;42.674;23.350;2023-05-08T04:43:30;95015.13;;;13.04;100.00
23164;BME280;31429;42.674;23.350;2023-05-08T04:44:30;95007.50;;;13.02;100.00
23164;BME280;31429;42.674;23.350;2023-05-08T04:45:31;95006.91;;;12.96;100.00
23164;BME280;31429;42.674;23.350;2023-05-08T04:46:32;95010.25;;;12.98;100.00
23164;BME280;31429;42.674;23.350;2023-05-08T04:47:32;95001.66;;;12.99;100.00
23164;BME280;31429;42.674;23.350;2023-05-08T04:48:33;95004.94;;;13.02;100.00
23164;BME280;31429;42.674;23.350;2023-05-08T04:49:34;95002.69;;;13.15;100.00
23164;BME280;31429;42.674;23.350;2023-05-08T04:50:35;94998.88;;;13.23;100.00
23164;BME280;31429;42.674;23.350;2023-05-08T04:51:35;95002.16;;;13.27;100.00
23164;BME280;31429;42.674;23.350;2023-05-08T04:52:36;94997.97;;;13.24;100.00
23164;BME280;31429;42.674;23.350;2023-05-08T04:53:38;94993.25;;;13.34;100.00
23164;BME280;31429;42.674;23.350;2023-05-08T04:54:38;94995.69;;;13.37;100.00
23164;BME280;31429;42.674;23.350;2023-05-08T04:55:39;94990.84;;;13.50;100.00
23164;BME280;31429;42.674;23.350;2023-05-08T04:56:40;94991.31;;;13.58;100.00
23164;BME280;31429;42.674;23.350;2023-05-08T04:57:40;94996.47;;;13.58;100.00
23164;BME280;31429;42.674;23.350;2023-05-08T04:58:41;94993.53;;;13.65;100.00
23164;BME280;31429;42.674;23.350;2023-05-08T04:59:41;94991.09;;;13.62;100.00
23164;BME280;31429;42.674;23.350;2023-05-08T05:00:42;94997.03;;;13.64;100.00
23164;BME280;31429;42.674;23.350;2023-05-08T05:01:44;94995.00;;;13.52;100.00
23164;BME280;31429;42.674;23.350;2023-05-08T05:02:45;95000.28;;;13.49;100.00
23164;BME280;31429;42.674;23.350;2023-05-08T05:03:45;95002.34;;;13.60;100.00
23164;BME280;31429;42.674;23.350;2023-05-08T05:05:05;95002.84;;;13.68;100.00
23164;BME280;31429;42.674;23.350;2023-05-08T05:06:06;95003.94;;;13.62;100.00
23164;BME280;31429;42.674;23.350;2023-05-08T05:07:07;94995.41;;;13.80;100.00
23164;BME280;31429;42.674;23.350;2023-05-08T05:08:07;94993.53;;;14.20;100.00
23164;BME280;31429;42.674;23.350;2023-05-08T05:09:09;94991.84;;;14.02;100.00
23164;BME280;31429;42.674;23.350;2023-05-08T05:10:11;94997.69;;;13.87;100.00
23164;BME280;31429;42.674;23.350;2023-05-08T05:11:11;94988.16;;;14.07;100.00
23164;BME280;31429;42.674;23.350;2023-05-08T05:12:12;94995.94;;;14.06;100.00
23164;BME280;31429;42.674;23.350;2023-05-08T05:13:12;94991.44;;;13.92;100.00
23164;BME280;31429;42.674;23.350;2023-05-08T05:14:13;94998.72;;;13.82;100.00
23164;BME280;31429;42.674;23.350;2023-05-08T05:15:14;94996.03;;;13.86;100.00
23164;BME280;31429;42.674;23.350;2023-05-08T05:16:15;94996.00;;;14.04;100.00
23164;BME280;31429;42.674;23.350;2023-05-08T05:17:15;94992.53;;;14.22;100.00
23164;BME280;31429;42.674;23.350;2023-05-08T05:18:16;94984.00;;;14.22;100.00
23164;BME280;31429;42.674;23.350;2023-05-08T05:19:17;94997.91;;;14.18;100.00
23164;BME280;31429;42.674;23.350;2023-05-08T05:20:18;94998.22;;;14.12;100.00
23164;BME280;31429;42.674;23.350;2023-05-08T05:21:19;94992.50;;;14.24;100.00
23164;BME280;31429;42.674;23.350;2023-05-08T05:22:19;94984.81;;;14.41;100.00
23164;BME280;31429;42.674;23.350;2023-05-08T05:23:20;94976.72;;;14.49;100.00
23164;BME280;31429;42.674;23.350;2023-05-08T05:24:22;94975.97;;;14.64;100.00
23164;BME280;31429;42.674;23.350;2023-05-08T05:25:22;94972.94;;;14.73;100.00
23164;BME280;31429;42.674;23.350;2023-05-08T05:26:23;94976.31;;;14.90;100.00
23164;BME280;31429;42.674;23.350;2023-05-08T05:27:23;94980.94;;;14.84;100.00
23164;BME280;31429;42.674;23.350;2023-05-08T05:28:24;94973.25;;;15.00;100.00
23164;BME280;31429;42.674;23.350;2023-05-08T05:29:25;94975.38;;;15.09;100.00
23164;BME280;31429;42.674;23.350;2023-05-08T05:30:26;94981.19;;;15.12;100.00
23164;BME280;31429;42.674;23.350;2023-05-08T05:31:27;94983.94;;;15.09;100.00
23164;BME280;31429;42.674;23.350;2023-05-08T05:32:27;94978.69;;;15.11;100.00